sensor_id;sensor_type;location;lat;lon;timestamp;temperature;humidity
285;DHT22;127;48.770;9.212;2023-03-01T00:01:48;-2.00;99.90
285;DHT22;127;48.770;9.212;2023-03-01T00:04:16;-2.00;99.90
285;DHT22;127;48.770;9.212;2023-03-01T00:06:45;-2.10;99.90
285;DHT22;127;48.770;9.212;2023-03-01T00:09:14;-2.10;99.90
285;DHT22;127;48.770;9.212;2023-03-01T00:11:46;-2.00;99.90
285;DHT22;127;48.770;9.212;2023-03-01T00:14:15;-1.90;99.90
285;DHT22;127;48.770;9.212;2023-03-01T00:16:45;-1.90;99.90
285;DHT22;127;48.770;9.212;2023-03-01T00:19:16;-1.90;99.90
285;DHT22;127;48.770;9.212;2023-03-01T00:21:45;-1.90;99.90
285;DHT22;127;48.770;9.212;2023-03-01T00:24:14;-2.00;99.90
285;DHT22;127;48.770;9.212;2023-03-01T00:26:45;-2.00;99.90
285;DHT22;127;48.770;9.212;2023-03-01T00:29:13;-2.10;99.90
285;DHT22;127;48.770;9.212;2023-03-01T00:31:42;-2.10;99.90
285;DHT22;127;48.770;9.212;2023-03-01T00:34:11;-2.10;99.90
285;DHT22;127;48.770;9.212;2023-03-01T00:36:39;-2.10;99.90
285;DHT22;127;48.770;9.212;2023-03-01T00:39:11;-2.10;99.90
285;DHT22;127;48.770;9.212;2023-03-01T00:41:40;-2.20;99.90
285;DHT22;127;48.770;9.212;2023-03-01T00:44:11;-2.20;99.90
285;DHT22;127;48.770;9.212;2023-03-01T00:46:40;-2.20;99.90
285;DHT22;127;48.770;9.212;2023-03-01T00:49:08;-2.20;99.90
285;DHT22;127;48.770;9.212;2023-03-01T00:51:37;-2.20;99.90
285;DHT22;127;48.770;9.212;2023-03-01T00:54:08;-2.20;99.90
285;DHT22;127;48.770;9.212;2023-03-01T00:56:37;-2.30;99.90
285;DHT22;127;48.770;9.212;2023-03-01T00:59:06;-2.30;99.90
285;DHT22;127;48.770;9.212;2023-03-01T01:01:37;-2.30;99.90
285;DHT22;127;48.770;9.212;2023-03-01T01:04:07;-2.30;99.90
285;DHT22;127;48.770;9.212;2023-03-01T01:06:38;-2.30;99.90
285;DHT22;127;48.770;9.212;2023-03-01T01:09:09;-2.30;99.90
285;DHT22;127;48.770;9.212;2023-03-01T01:11:43;-2.30;99.90
285;DHT22;127;48.770;9.212;2023-03-01T01:14:12;-2.20;99.90
285;DHT22;127;48.770;9.212;2023-03-01T01:16:43;-2.20;99.90
285;DHT22;127;48.770;9.212;2023-03-01T01:19:12;-2.30;99.90
285;DHT22;127;48.770;9.212;2023-03-01T01:21:41;-2.30;99.90
285;DHT22;127;48.770;9.212;2023-03-01T01:24:10;-2.40;99.90
285;DHT22;127;48.770;9.212;2023-03-01T01:26:39;-2.40;99.90
285;DHT22;127;48.770;9.212;2023-03-01T01:29:08;-2.30;99.90
285;DHT22;127;48.770;9.212;2023-03-01T01:31:38;-2.40;99.90
285;DHT22;127;48.770;9.212;2023-03-01T01:34:13;-2.40;99.90
285;DHT22;127;48.770;9.212;2023-03-01T01:36:42;-2.40;99.90
285;DHT22;127;48.770;9.212;2023-03-01T01:39:11;-2.40;99.90
285;DHT22;127;48.770;9.212;2023-03-01T01:41:41;-2.50;99.90
285;DHT22;127;48.770;9.212;2023-03-01T01:44:13;-2.50;99.90
285;DHT22;127;48.770;9.212;2023-03-01T01:46:44;-2.60;99.90
285;DHT22;127;48.770;9.212;2023-03-01T01:49:29;-2.60;99.90
285;DHT22;127;48.770;9.212;2023-03-01T01:52:09;-2.60;99.90
285;DHT22;127;48.770;9.212;2023-03-01T01:54:43;-2.60;99.90
285;DHT22;127;48.770;9.212;2023-03-01T01:57:16;-2.50;99.90
285;DHT22;127;48.770;9.212;2023-03-01T01:59:50;-2.40;99.90
285;DHT22;127;48.770;9.212;2023-03-01T02:02:20;-2.30;99.90
285;DHT22;127;48.770;9.212;2023-03-01T02:04:55;-2.20;99.90
285;DHT22;127;48.770;9.212;2023-03-01T02:07:29;-2.10;99.90
285;DHT22;127;48.770;9.212;2023-03-01T02:09:58;-2.00;99.90
285;DHT22;127;48.770;9.212;2023-03-01T02:12:27;-1.80;99.90
285;DHT22;127;48.770;9.212;2023-03-01T02:14:56;-1.60;99.90
285;DHT22;127;48.770;9.212;2023-03-01T02:17:25;-1.50;99.90
285;DHT22;127;48.770;9.212;2023-03-01T02:20:07;-1.50;99.90
285;DHT22;127;48.770;9.212;2023-03-01T02:22:38;-1.40;99.90
285;DHT22;127;48.770;9.212;2023-03-01T02:25:19;-1.20;99.90
285;DHT22;127;48.770;9.212;2023-03-01T02:27:57;-1.20;99.90
285;DHT22;127;48.770;9.212;2023-03-01T02:30:30;-1.00;99.90
285;DHT22;127;48.770;9.212;2023-03-01T02:33:00;-1.00;99.90
285;DHT22;127;48.770;9.212;2023-03-01T02:35:30;-0.90;99.90
285;DHT22;127;48.770;9.212;2023-03-01T02:38:01;-0.90;99.90
285;DHT22;127;48.770;9.212;2023-03-01T02:40:30;-0.80;99.90
285;DHT22;127;48.770;9.212;2023-03-01T02:43:01;-0.70;99.90
285;DHT22;127;48.770;9.212;2023-03-01T02:45:35;-0.70;99.90
285;DHT22;127;48.770;9.212;2023-03-01T02:48:03;-0.60;99.90
285;DHT22;127;48.770;9.212;2023-03-01T02:51:02;-0.60;99.90
285;DHT22;127;48.770;9.212;2023-03-01T02:53:41;-0.60;99.90
285;DHT22;127;48.770;9.212;2023-03-01T02:56:13;-0.70;99.90
285;DHT22;127;48.770;9.212;2023-03-01T02:58:43;-0.70;99.90
285;DHT22;127;48.770;9.212;2023-03-01T03:01:20;-0.70;99.90
285;DHT22;127;48.770;9.212;2023-03-01T03:04:02;-0.60;99.90
285;DHT22;127;48.770;9.212;2023-03-01T03:06:31;-0.50;99.90
285;DHT22;127;48.770;9.212;2023-03-01T03:08:59;-0.60;99.90
285;DHT22;127;48.770;9.212;2023-03-01T03:11:28;-0.60;99.90
285;DHT22;127;48.770;9.212;2023-03-01T03:13:57;-0.50;99.90
285;DHT22;127;48.770;9.212;2023-03-01T03:16:29;-0.50;99.90
285;DHT22;127;48.770;9.212;2023-03-01T03:18:58;-0.50;99.90
285;DHT22;127;48.770;9.212;2023-03-01T03:21:31;-0.50;99.90
285;DHT22;127;48.770;9.212;2023-03-01T03:23:59;-0.50;99.90
285;DHT22;127;48.770;9.212;2023-03-01T03:26:28;-0.60;99.90
285;DHT22;127;48.770;9.212;2023-03-01T03:28:57;-0.70;99.90
285;DHT22;127;48.770;9.212;2023-03-01T03:31:26;-0.60;99.90
285;DHT22;127;48.770;9.212;2023-03-01T03:33:57;-0.60;99.90
285;DHT22;127;48.770;9.212;2023-03-01T03:36:26;-0.50;99.90
285;DHT22;127;48.770;9.212;2023-03-01T03:38:54;-0.60;99.90
285;DHT22;127;48.770;9.212;2023-03-01T03:41:23;-0.50;99.90
285;DHT22;127;48.770;9.212;2023-03-01T03:43:52;-0.60;99.90
285;DHT22;127;48.770;9.212;2023-03-01T03:46:20;-0.40;99.90
285;DHT22;127;48.770;9.212;2023-03-01T03:48:49;-0.30;99.90
285;DHT22;127;48.770;9.212;2023-03-01T03:51:20;-0.20;99.90
285;DHT22;127;48.770;9.212;2023-03-01T03:53:49;-0.10;99.90
285;DHT22;127;48.770;9.212;2023-03-01T03:56:18;-0.10;99.90
285;DHT22;127;48.770;9.212;2023-03-01T03:58:51;-0.10;99.90
285;DHT22;127;48.770;9.212;2023-03-01T04:01:20;0.00;99.90
285;DHT22;127;48.770;9.212;2023-03-01T04:03:48;0.00;99.90
285;DHT22;127;48.770;9.212;2023-03-01T04:06:22;0.00;99.90
285;DHT22;127;48.770;9.212;2023-03-01T04:08:51;0.10;99.90
285;DHT22;127;48.770;9.212;2023-03-01T04:11:23;0.10;99.90
285;DHT22;127;48.770;9.212;2023-03-01T04:13:57;-0.10;99.90
285;DHT22;127;48.770;9.212;2023-03-01T04:16:26;-0.10;99.90
285;DHT22;127;48.770;9.212;2023-03-01T04:18:54;0.00;99.90
285;DHT22;127;48.770;9.212;2023-03-01T04:21:27;0.10;99.90
285;DHT22;127;48.770;9.212;2023-03-01T04:23:56;0.10;99.90
285;DHT22;127;48.770;9.212;2023-03-01T04:26:24;0.00;99.90
285;DHT22;127;48.770;9.212;2023-03-01T04:28:53;0.00;99.90
285;DHT22;127;48.770;9.212;2023-03-01T04:31:22;0.10;99.90
285;DHT22;127;48.770;9.212;2023-03-01T04:33:53;0.10;99.90
285;DHT22;127;48.770;9.212;2023-03-01T04:36:24;0.20;99.90
285;DHT22;127;48.770;9.212;2023-03-01T04:38:56;0.10;99.90
285;DHT22;127;48.770;9.212;2023-03-01T04:41:25;0.10;99.90
285;DHT22;127;48.770;9.212;2023-03-01T04:43:53;0.20;99.90
285;DHT22;127;48.770;9.212;2023-03-01T04:46:22;0.30;99.90
285;DHT22;127;48.770;9.212;2023-03-01T04:48:51;0.30;99.90
285;DHT22;127;48.770;9.212;2023-03-01T04:51:19;0.30;99.90
285;DHT22;127;48.770;9.212;2023-03-01T04:53:48;0.30;99.90
285;DHT22;127;48.770;9.212;2023-03-01T04:56:19;0.30;99.90
285;DHT22;127;48.770;9.212;2023-03-01T04:58:48;0.20;99.90
285;DHT22;127;48.770;9.212;2023-03-01T05:01:19;0.20;99.90
285;DHT22;127;48.770;9.212;2023-03-01T05:03:50;0.20;99.90
285;DHT22;127;48.770;9.212;2023-03-01T05:06:20;0.20;99.90
285;DHT22;127;48.770;9.212;2023-03-01T05:08:49;0.10;99.90
285;DHT22;127;48.770;9.212;2023-03-01T05:11:20;0.00;99.90
285;DHT22;127;48.770;9.212;2023-03-01T05:13:48;0.10;99.90
285;DHT22;127;48.770;9.212;2023-03-01T05:16:20;0.10;99.90
285;DHT22;127;48.770;9.212;2023-03-01T05:18:49;0.20;99.90
285;DHT22;127;48.770;9.212;2023-03-01T05:21:18;0.30;99.90
285;DHT22;127;48.770;9.212;2023-03-01T05:23:47;0.30;99.90
285;DHT22;127;48.770;9.212;2023-03-01T05:26:19;0.30;99.90
285;DHT22;127;48.770;9.212;2023-03-01T05:28:52;0.30;99.90
285;DHT22;127;48.770;9.212;2023-03-01T05:31:24;0.30;99.90
285;DHT22;127;48.770;9.212;2023-03-01T05:33:52;0.40;99.90
285;DHT22;127;48.770;9.212;2023-03-01T05:36:21;0.30;99.90
285;DHT22;127;48.770;9.212;2023-03-01T05:38:49;0.30;99.90
285;DHT22;127;48.770;9.212;2023-03-01T05:41:20;0.30;99.90
285;DHT22;127;48.770;9.212;2023-03-01T05:43:49;0.30;99.90
285;DHT22;127;48.770;9.212;2023-03-01T05:46:18;0.30;99.90
285;DHT22;127;48.770;9.212;2023-03-01T05:48:46;0.40;99.90
285;DHT22;127;48.770;9.212;2023-03-01T05:51:15;0.40;99.90
285;DHT22;127;48.770;9.212;2023-03-01T05:53:43;0.40;99.90
285;DHT22;127;48.770;9.212;2023-03-01T05:56:12;0.40;99.90
285;DHT22;127;48.770;9.212;2023-03-01T05:58:43;0.40;99.90
285;DHT22;127;48.770;9.212;2023-03-01T06:01:12;0.40;99.90
285;DHT22;127;48.770;9.212;2023-03-01T06:03:41;0.40;99.90
285;DHT22;127;48.770;9.212;2023-03-01T06:06:10;0.30;99.90
285;DHT22;127;48.770;9.212;2023-03-01T06:08:38;0.20;99.90
285;DHT22;127;48.770;9.212;2023-03-01T06:11:07;0.10;99.90
285;DHT22;127;48.770;9.212;2023-03-01T06:13:35;0.20;99.90
285;DHT22;127;48.770;9.212;2023-03-01T06:16:08;0.20;99.90
285;DHT22;127;48.770;9.212;2023-03-01T06:18:37;0.20;99.90
285;DHT22;127;48.770;9.212;2023-03-01T06:21:07;0.20;99.90
285;DHT22;127;48.770;9.212;2023-03-01T06:23:36;0.20;99.90
285;DHT22;127;48.770;9.212;2023-03-01T06:26:08;0.20;99.90
285;DHT22;127;48.770;9.212;2023-03-01T06:28:37;0.10;99.90
285;DHT22;127;48.770;9.212;2023-03-01T06:31:08;0.10;99.90
285;DHT22;127;48.770;9.212;2023-03-01T06:33:37;0.10;99.90
285;DHT22;127;48.770;9.212;2023-03-01T06:36:06;0.20;99.90
285;DHT22;127;48.770;9.212;2023-03-01T06:38:35;0.20;99.90
285;DHT22;127;48.770;9.212;2023-03-01T06:41:06;0.20;99.90
285;DHT22;127;48.770;9.212;2023-03-01T06:43:35;0.20;99.90
285;DHT22;127;48.770;9.212;2023-03-01T06:46:04;0.30;99.90
285;DHT22;127;48.770;9.212;2023-03-01T06:48:36;0.30;99.90
285;DHT22;127;48.770;9.212;2023-03-01T06:51:04;0.40;99.90
285;DHT22;127;48.770;9.212;2023-03-01T06:53:33;0.30;99.90
285;DHT22;127;48.770;9.212;2023-03-01T06:56:02;0.30;99.90
285;DHT22;127;48.770;9.212;2023-03-01T06:58:30;0.40;99.90
285;DHT22;127;48.770;9.212;2023-03-01T07:00:59;0.40;99.90
285;DHT22;127;48.770;9.212;2023-03-01T07:03:28;0.20;99.90
285;DHT22;127;48.770;9.212;2023-03-01T07:05:59;0.30;99.90
285;DHT22;127;48.770;9.212;2023-03-01T07:08:27;0.20;99.90
285;DHT22;127;48.770;9.212;2023-03-01T07:10:56;0.30;99.90
285;DHT22;127;48.770;9.212;2023-03-01T07:13:27;0.30;99.90
285;DHT22;127;48.770;9.212;2023-03-01T07:15:56;0.20;99.90
285;DHT22;127;48.770;9.212;2023-03-01T07:18:24;0.10;99.90
285;DHT22;127;48.770;9.212;2023-03-01T07:20:53;0.00;99.90
285;DHT22;127;48.770;9.212;2023-03-01T07:23:24;0.00;99.90
285;DHT22;127;48.770;9.212;2023-03-01T07:25:53;0.00;99.90
285;DHT22;127;48.770;9.212;2023-03-01T07:28:23;-0.10;99.90
285;DHT22;127;48.770;9.212;2023-03-01T07:30:52;-0.10;99.90
285;DHT22;127;48.770;9.212;2023-03-01T07:33:20;-0.10;99.90
285;DHT22;127;48.770;9.212;2023-03-01T07:35:55;-0.10;99.90
285;DHT22;127;48.770;9.212;2023-03-01T07:38:27;-0.10;99.90
285;DHT22;127;48.770;9.212;2023-03-01T07:40:58;-0.10;99.90
285;DHT22;127;48.770;9.212;2023-03-01T07:43:27;-0.10;99.90
285;DHT22;127;48.770;9.212;2023-03-01T07:45:58;-0.10;99.90
285;DHT22;127;48.770;9.212;2023-03-01T07:48:27;-0.10;99.90
285;DHT22;127;48.770;9.212;2023-03-01T07:50:58;-0.10;99.90
285;DHT22;127;48.770;9.212;2023-03-01T07:53:30;-0.10;99.90
285;DHT22;127;48.770;9.212;2023-03-01T07:56:03;0.10;99.90
285;DHT22;127;48.770;9.212;2023-03-01T07:58:34;0.20;99.90
285;DHT22;127;48.770;9.212;2023-03-01T08:01:03;0.30;99.90
285;DHT22;127;48.770;9.212;2023-03-01T08:03:32;0.50;99.90
285;DHT22;127;48.770;9.212;2023-03-01T08:06:01;0.50;99.90
285;DHT22;127;48.770;9.212;2023-03-01T08:08:33;0.30;99.90
285;DHT22;127;48.770;9.212;2023-03-01T08:11:04;0.30;99.90
285;DHT22;127;48.770;9.212;2023-03-01T08:13:33;0.50;99.90
285;DHT22;127;48.770;9.212;2023-03-01T08:16:03;0.60;99.90
285;DHT22;127;48.770;9.212;2023-03-01T08:18:31;0.60;99.90
285;DHT22;127;48.770;9.212;2023-03-01T08:21:04;0.50;99.90
285;DHT22;127;48.770;9.212;2023-03-01T08:23:35;0.70;99.90
285;DHT22;127;48.770;9.212;2023-03-01T08:26:06;1.00;99.90
285;DHT22;127;48.770;9.212;2023-03-01T08:28:35;1.30;99.90
285;DHT22;127;48.770;9.212;2023-03-01T08:31:13;1.90;99.90
285;DHT22;127;48.770;9.212;2023-03-01T08:33:42;2.60;99.90
285;DHT22;127;48.770;9.212;2023-03-01T08:36:16;2.90;99.90
285;DHT22;127;48.770;9.212;2023-03-01T08:38:49;2.50;99.90
285;DHT22;127;48.770;9.212;2023-03-01T08:41:18;2.60;99.90
285;DHT22;127;48.770;9.212;2023-03-01T08:43:46;2.60;99.90
285;DHT22;127;48.770;9.212;2023-03-01T08:46:15;3.00;99.90
285;DHT22;127;48.770;9.212;2023-03-01T08:48:44;3.10;99.90
285;DHT22;127;48.770;9.212;2023-03-01T08:51:14;3.50;99.90
285;DHT22;127;48.770;9.212;2023-03-01T08:53:43;3.60;99.90
285;DHT22;127;48.770;9.212;2023-03-01T08:56:15;3.80;99.90
285;DHT22;127;48.770;9.212;2023-03-01T08:58:46;4.40;99.90
285;DHT22;127;48.770;9.212;2023-03-01T09:01:16;4.10;99.90
285;DHT22;127;48.770;9.212;2023-03-01T09:03:45;3.90;99.90
285;DHT22;127;48.770;9.212;2023-03-01T09:06:14;3.80;99.90
285;DHT22;127;48.770;9.212;2023-03-01T09:08:45;4.40;99.90
285;DHT22;127;48.770;9.212;2023-03-01T09:11:18;5.20;99.90
285;DHT22;127;48.770;9.212;2023-03-01T09:13:48;5.70;99.90
285;DHT22;127;48.770;9.212;2023-03-01T09:16:18;6.10;99.90
285;DHT22;127;48.770;9.212;2023-03-01T09:18:50;6.80;99.90
285;DHT22;127;48.770;9.212;2023-03-01T09:21:21;7.40;99.90
285;DHT22;127;48.770;9.212;2023-03-01T09:23:50;9.00;99.90
285;DHT22;127;48.770;9.212;2023-03-01T09:26:22;10.20;99.90
285;DHT22;127;48.770;9.212;2023-03-01T09:28:52;11.40;99.90
285;DHT22;127;48.770;9.212;2023-03-01T09:31:22;11.60;99.90
285;DHT22;127;48.770;9.212;2023-03-01T09:33:52;11.70;99.90
285;DHT22;127;48.770;9.212;2023-03-01T09:36:23;11.00;99.90
285;DHT22;127;48.770;9.212;2023-03-01T09:38:54;11.80;99.90
285;DHT22;127;48.770;9.212;2023-03-01T09:41:44;13.30;99.90
285;DHT22;127;48.770;9.212;2023-03-01T09:44:29;11.60;99.90
285;DHT22;127;48.770;9.212;2023-03-01T09:47:00;11.30;99.90
285;DHT22;127;48.770;9.212;2023-03-01T09:49:31;9.90;99.90
285;DHT22;127;48.770;9.212;2023-03-01T09:52:09;11.10;99.90
285;DHT22;127;48.770;9.212;2023-03-01T09:54:40;12.70;99.90
285;DHT22;127;48.770;9.212;2023-03-01T09:57:19;12.30;99.90
285;DHT22;127;48.770;9.212;2023-03-01T10:00:07;13.00;99.90
285;DHT22;127;48.770;9.212;2023-03-01T10:02:43;14.00;99.90
285;DHT22;127;48.770;9.212;2023-03-01T10:05:22;14.20;99.90
285;DHT22;127;48.770;9.212;2023-03-01T10:08:04;15.10;99.90
285;DHT22;127;48.770;9.212;2023-03-01T10:10:35;14.20;99.90
285;DHT22;127;48.770;9.212;2023-03-01T10:13:13;15.40;99.90
285;DHT22;127;48.770;9.212;2023-03-01T10:15:45;13.40;99.90
285;DHT22;127;48.770;9.212;2023-03-01T10:18:24;13.40;99.90
285;DHT22;127;48.770;9.212;2023-03-01T10:20:57;14.00;99.90
285;DHT22;127;48.770;9.212;2023-03-01T10:23:29;14.40;99.90
285;DHT22;127;48.770;9.212;2023-03-01T10:26:26;15.60;99.90
285;DHT22;127;48.770;9.212;2023-03-01T10:29:04;16.30;99.90
285;DHT22;127;48.770;9.212;2023-03-01T10:31:39;18.10;99.90
285;DHT22;127;48.770;9.212;2023-03-01T10:34:12;14.70;99.90
285;DHT22;127;48.770;9.212;2023-03-01T10:36:42;15.70;99.90
285;DHT22;127;48.770;9.212;2023-03-01T10:39:14;16.60;99.90
285;DHT22;127;48.770;9.212;2023-03-01T10:41:59;15.20;99.90
285;DHT22;127;48.770;9.212;2023-03-01T10:44:44;14.50;99.90
285;DHT22;127;48.770;9.212;2023-03-01T10:47:16;12.70;99.90
285;DHT22;127;48.770;9.212;2023-03-01T10:50:09;13.60;99.90
285;DHT22;127;48.770;9.212;2023-03-01T10:52:57;14.30;99.90
285;DHT22;127;48.770;9.212;2023-03-01T10:55:31;13.70;99.90
285;DHT22;127;48.770;9.212;2023-03-01T10:58:17;14.60;99.90
285;DHT22;127;48.770;9.212;2023-03-01T11:00:51;15.50;99.90
285;DHT22;127;48.770;9.212;2023-03-01T11:03:22;16.40;99.90
285;DHT22;127;48.770;9.212;2023-03-01T11:06:00;16.50;99.90
285;DHT22;127;48.770;9.212;2023-03-01T11:08:40;16.50;99.90
285;DHT22;127;48.770;9.212;2023-03-01T11:11:33;16.10;99.90
285;DHT22;127;48.770;9.212;2023-03-01T11:14:06;16.40;99.90
285;DHT22;127;48.770;9.212;2023-03-01T11:16:40;16.80;99.90
285;DHT22;127;48.770;9.212;2023-03-01T11:19:20;16.80;99.90
285;DHT22;127;48.770;9.212;2023-03-01T11:21:59;16.70;99.90
285;DHT22;127;48.770;9.212;2023-03-01T11:24:33;15.80;99.90
285;DHT22;127;48.770;9.212;2023-03-01T11:27:04;14.80;99.90
285;DHT22;127;48.770;9.212;2023-03-01T11:29:39;16.20;99.90
285;DHT22;127;48.770;9.212;2023-03-01T11:32:13;16.20;99.90
285;DHT22;127;48.770;9.212;2023-03-01T11:34:46;16.90;99.90
285;DHT22;127;48.770;9.212;2023-03-01T11:37:32;17.90;99.90
285;DHT22;127;48.770;9.212;2023-03-01T11:40:12;17.00;99.90
285;DHT22;127;48.770;9.212;2023-03-01T11:42:52;17.00;99.90
285;DHT22;127;48.770;9.212;2023-03-01T11:45:24;17.10;99.90
285;DHT22;127;48.770;9.212;2023-03-01T11:48:11;18.70;99.90
285;DHT22;127;48.770;9.212;2023-03-01T11:50:44;17.70;99.90
285;DHT22;127;48.770;9.212;2023-03-01T11:53:28;19.00;99.90
285;DHT22;127;48.770;9.212;2023-03-01T11:56:07;20.40;99.90
285;DHT22;127;48.770;9.212;2023-03-01T11:58:53;20.70;99.90
285;DHT22;127;48.770;9.212;2023-03-01T12:01:38;20.30;99.90
285;DHT22;127;48.770;9.212;2023-03-01T12:04:28;18.90;99.90
285;DHT22;127;48.770;9.212;2023-03-01T12:07:01;17.10;99.90
285;DHT22;127;48.770;9.212;2023-03-01T12:09:43;18.30;99.90
285;DHT22;127;48.770;9.212;2023-03-01T12:12:27;20.00;99.90
285;DHT22;127;48.770;9.212;2023-03-01T12:18:17;19.80;99.90
285;DHT22;127;48.770;9.212;2023-03-01T12:20:59;18.70;99.90
285;DHT22;127;48.770;9.212;2023-03-01T12:26:39;19.20;99.90
285;DHT22;127;48.770;9.212;2023-03-01T12:29:25;18.60;99.90
285;DHT22;127;48.770;9.212;2023-03-01T12:32:10;18.30;99.90
285;DHT22;127;48.770;9.212;2023-03-01T12:34:53;19.60;99.90
285;DHT22;127;48.770;9.212;2023-03-01T12:37:32;20.70;99.90
285;DHT22;127;48.770;9.212;2023-03-01T12:40:20;18.90;99.90
285;DHT22;127;48.770;9.212;2023-03-01T12:43:01;19.20;99.90
285;DHT22;127;48.770;9.212;2023-03-01T12:46:02;20.80;99.90
285;DHT22;127;48.770;9.212;2023-03-01T12:48:43;19.00;99.90
285;DHT22;127;48.770;9.212;2023-03-01T12:51:15;19.70;99.90
285;DHT22;127;48.770;9.212;2023-03-01T12:53:49;18.10;99.90
285;DHT22;127;48.770;9.212;2023-03-01T12:56:21;18.50;99.90
285;DHT22;127;48.770;9.212;2023-03-01T12:58:57;18.70;99.90
285;DHT22;127;48.770;9.212;2023-03-01T13:01:35;17.60;99.90
285;DHT22;127;48.770;9.212;2023-03-01T13:04:16;17.50;99.90
285;DHT22;127;48.770;9.212;2023-03-01T13:06:55;19.30;99.90
285;DHT22;127;48.770;9.212;2023-03-01T13:09:37;20.10;99.90
285;DHT22;127;48.770;9.212;2023-03-01T13:15:25;20.60;99.90
285;DHT22;127;48.770;9.212;2023-03-01T13:17:55;20.30;99.90
285;DHT22;127;48.770;9.212;2023-03-01T13:20:30;19.10;99.90
285;DHT22;127;48.770;9.212;2023-03-01T13:23:06;17.80;99.90
285;DHT22;127;48.770;9.212;2023-03-01T13:26:11;18.80;99.90
285;DHT22;127;48.770;9.212;2023-03-01T13:28:49;19.10;99.90
285;DHT22;127;48.770;9.212;2023-03-01T13:34:41;18.50;99.90
285;DHT22;127;48.770;9.212;2023-03-01T13:37:20;19.60;99.90
285;DHT22;127;48.770;9.212;2023-03-01T13:39:49;21.00;99.90
285;DHT22;127;48.770;9.212;2023-03-01T13:42:42;18.90;99.90
285;DHT22;127;48.770;9.212;2023-03-01T13:45:24;18.10;99.90
285;DHT22;127;48.770;9.212;2023-03-01T13:47:57;20.00;99.90
285;DHT22;127;48.770;9.212;2023-03-01T13:50:29;19.60;99.90
285;DHT22;127;48.770;9.212;2023-03-01T13:53:02;19.50;99.90
285;DHT22;127;48.770;9.212;2023-03-01T13:55:37;19.20;99.90
285;DHT22;127;48.770;9.212;2023-03-01T13:58:19;18.60;99.90
285;DHT22;127;48.770;9.212;2023-03-01T14:00:57;19.40;99.90
285;DHT22;127;48.770;9.212;2023-03-01T14:03:26;18.40;99.90
285;DHT22;127;48.770;9.212;2023-03-01T14:06:02;18.90;99.90
285;DHT22;127;48.770;9.212;2023-03-01T14:08:33;19.50;99.90
285;DHT22;127;48.770;9.212;2023-03-01T14:14:34;18.90;99.90
285;DHT22;127;48.770;9.212;2023-03-01T14:17:29;18.20;99.90
285;DHT22;127;48.770;9.212;2023-03-01T14:20:07;18.00;99.90
285;DHT22;127;48.770;9.212;2023-03-01T14:22:40;17.90;99.90
285;DHT22;127;48.770;9.212;2023-03-01T14:25:20;17.60;99.90
285;DHT22;127;48.770;9.212;2023-03-01T14:27:56;18.30;99.90
285;DHT22;127;48.770;9.212;2023-03-01T14:30:32;18.40;99.90
285;DHT22;127;48.770;9.212;2023-03-01T14:33:04;18.30;99.90
285;DHT22;127;48.770;9.212;2023-03-01T14:35:35;18.70;99.90
285;DHT22;127;48.770;9.212;2023-03-01T14:38:04;18.20;99.90
285;DHT22;127;48.770;9.212;2023-03-01T14:40:35;17.20;99.90
285;DHT22;127;48.770;9.212;2023-03-01T14:43:10;16.80;99.90
285;DHT22;127;48.770;9.212;2023-03-01T14:45:47;17.30;99.90
285;DHT22;127;48.770;9.212;2023-03-01T14:48:17;16.70;99.90
285;DHT22;127;48.770;9.212;2023-03-01T14:50:46;16.60;99.90
285;DHT22;127;48.770;9.212;2023-03-01T14:53:17;16.40;99.90
285;DHT22;127;48.770;9.212;2023-03-01T14:55:50;16.20;99.90
285;DHT22;127;48.770;9.212;2023-03-01T14:58:22;16.70;99.90
285;DHT22;127;48.770;9.212;2023-03-01T15:00:55;15.50;99.90
285;DHT22;127;48.770;9.212;2023-03-01T15:03:27;16.10;99.90
285;DHT22;127;48.770;9.212;2023-03-01T15:06:00;15.40;99.90
285;DHT22;127;48.770;9.212;2023-03-01T15:08:30;14.90;99.90
285;DHT22;127;48.770;9.212;2023-03-01T15:11:01;13.90;99.90
285;DHT22;127;48.770;9.212;2023-03-01T15:13:32;14.00;99.90
285;DHT22;127;48.770;9.212;2023-03-01T15:16:14;14.00;99.90
285;DHT22;127;48.770;9.212;2023-03-01T15:18:45;14.90;99.90
285;DHT22;127;48.770;9.212;2023-03-01T15:21:18;15.70;99.90
285;DHT22;127;48.770;9.212;2023-03-01T15:23:50;15.80;99.90
285;DHT22;127;48.770;9.212;2023-03-01T15:26:28;15.60;99.90
285;DHT22;127;48.770;9.212;2023-03-01T15:28:58;15.00;99.90
285;DHT22;127;48.770;9.212;2023-03-01T15:31:33;13.60;99.90
285;DHT22;127;48.770;9.212;2023-03-01T15:34:22;13.20;99.90
285;DHT22;127;48.770;9.212;2023-03-01T15:36:52;13.70;99.90
285;DHT22;127;48.770;9.212;2023-03-01T15:39:31;14.10;99.90
285;DHT22;127;48.770;9.212;2023-03-01T15:42:03;14.50;99.90
285;DHT22;127;48.770;9.212;2023-03-01T15:44:34;13.90;99.90
285;DHT22;127;48.770;9.212;2023-03-01T15:47:21;13.50;99.90
285;DHT22;127;48.770;9.212;2023-03-01T15:49:52;13.10;99.90
285;DHT22;127;48.770;9.212;2023-03-01T15:52:24;12.20;99.90
285;DHT22;127;48.770;9.212;2023-03-01T15:54:59;12.90;99.90
285;DHT22;127;48.770;9.212;2023-03-01T15:57:28;13.20;99.90
285;DHT22;127;48.770;9.212;2023-03-01T15:59:57;13.40;99.90
285;DHT22;127;48.770;9.212;2023-03-01T16:02:29;12.50;99.90
285;DHT22;127;48.770;9.212;2023-03-01T16:04:57;12.00;99.90
285;DHT22;127;48.770;9.212;2023-03-01T16:07:26;11.50;99.90
285;DHT22;127;48.770;9.212;2023-03-01T16:09:56;10.90;99.90
285;DHT22;127;48.770;9.212;2023-03-01T16:12:25;10.50;99.90
285;DHT22;127;48.770;9.212;2023-03-01T16:14:54;10.60;99.90
285;DHT22;127;48.770;9.212;2023-03-01T16:17:23;10.60;99.90
285;DHT22;127;48.770;9.212;2023-03-01T16:19:54;10.30;99.90
285;DHT22;127;48.770;9.212;2023-03-01T16:22:23;10.50;99.90
285;DHT22;127;48.770;9.212;2023-03-01T16:24:52;10.60;99.90
285;DHT22;127;48.770;9.212;2023-03-01T16:27:21;10.60;99.90
285;DHT22;127;48.770;9.212;2023-03-01T16:29:50;10.10;99.90
285;DHT22;127;48.770;9.212;2023-03-01T16:32:18;9.90;99.90
285;DHT22;127;48.770;9.212;2023-03-01T16:34:47;9.40;99.90
285;DHT22;127;48.770;9.212;2023-03-01T16:37:19;9.40;99.90
285;DHT22;127;48.770;9.212;2023-03-01T16:39:48;9.30;99.90
285;DHT22;127;48.770;9.212;2023-03-01T16:42:18;8.90;99.90
285;DHT22;127;48.770;9.212;2023-03-01T16:44:47;8.90;99.90
285;DHT22;127;48.770;9.212;2023-03-01T16:47:15;8.30;99.90
285;DHT22;127;48.770;9.212;2023-03-01T16:49:44;8.20;99.90
285;DHT22;127;48.770;9.212;2023-03-01T16:52:12;7.40;99.90
285;DHT22;127;48.770;9.212;2023-03-01T16:54:44;7.50;99.90
285;DHT22;127;48.770;9.212;2023-03-01T16:57:13;7.40;99.90
285;DHT22;127;48.770;9.212;2023-03-01T16:59:42;7.10;99.90
285;DHT22;127;48.770;9.212;2023-03-01T17:02:11;7.00;99.90
285;DHT22;127;48.770;9.212;2023-03-01T17:04:40;6.80;99.90
285;DHT22;127;48.770;9.212;2023-03-01T17:07:09;6.70;99.90
285;DHT22;127;48.770;9.212;2023-03-01T17:09:37;6.60;99.90
285;DHT22;127;48.770;9.212;2023-03-01T17:12:11;6.20;99.90
285;DHT22;127;48.770;9.212;2023-03-01T17:14:40;6.00;99.90
285;DHT22;127;48.770;9.212;2023-03-01T17:17:09;5.90;99.90
285;DHT22;127;48.770;9.212;2023-03-01T17:19:38;5.80;99.90
285;DHT22;127;48.770;9.212;2023-03-01T17:22:09;5.70;99.90
285;DHT22;127;48.770;9.212;2023-03-01T17:24:40;5.60;99.90
285;DHT22;127;48.770;9.212;2023-03-01T17:27:12;5.50;99.90
285;DHT22;127;48.770;9.212;2023-03-01T17:29:42;5.30;99.90
285;DHT22;127;48.770;9.212;2023-03-01T17:32:10;5.30;99.90
285;DHT22;127;48.770;9.212;2023-03-01T17:34:39;5.20;99.90